createdAt,value
2018-04-10T00:00:31.416Z,31.50
2018-04-10T00:02:59.458Z,30.00
2018-04-10T00:05:28.696Z,30.50
2018-04-10T00:07:56.753Z,31.53
2018-04-10T00:10:24.828Z,29.97
2018-04-10T00:12:52.862Z,30.90
2018-04-10T00:15:21.709Z,31.07
2018-04-10T00:17:49.757Z,30.20
2018-04-10T00:20:17.879Z,31.13
2018-04-10T00:22:45.926Z,30.53
2018-04-10T00:25:13.991Z,28.90
2018-04-10T00:27:42.062Z,30.10
2018-04-10T00:30:10.093Z,29.07
2018-04-10T00:32:38.144Z,27.97
2018-04-10T00:35:06.213Z,27.70
2018-04-10T00:37:34.270Z,28.83
2018-04-10T00:40:02.348Z,29.73
2018-04-10T00:42:30.388Z,27.00
2018-04-10T00:44:58.459Z,25.83
2018-04-10T00:47:26.506Z,27.97
2018-04-10T00:49:54.573Z,26.37
2018-04-10T00:52:22.660Z,26.23
2018-04-10T00:54:51.953Z,26.83
2018-04-10T00:57:20.767Z,26.80
2018-04-10T00:59:48.845Z,26.47
2018-04-10T01:02:16.898Z,25.60
2018-04-10T01:04:44.947Z,26.20
2018-04-10T01:07:13.030Z,25.73
2018-04-10T01:09:41.085Z,25.53
2018-04-10T01:12:09.154Z,24.90
2018-04-10T01:14:37.252Z,25.30
2018-04-10T01:17:05.306Z,26.57
2018-04-10T01:19:33.348Z,25.10
2018-04-10T01:22:01.460Z,26.20
2018-04-10T01:24:29.521Z,26.47
2018-04-10T01:26:58.938Z,25.77
2018-04-10T01:29:26.906Z,26.03
2018-04-10T01:31:54.953Z,26.27
2018-04-10T01:34:23.791Z,25.20
2018-04-10T01:36:51.862Z,25.40
2018-04-10T01:39:19.947Z,24.57
2018-04-10T01:41:48.783Z,24.80
2018-04-10T01:44:16.854Z,25.97
2018-04-10T01:46:45.024Z,25.30
2018-04-10T01:49:13.024Z,24.03
2018-04-10T01:51:41.101Z,23.73
2018-04-10T01:54:09.168Z,25.10
2018-04-10T01:56:37.231Z,26.60
2018-04-10T01:59:05.292Z,25.47
2018-04-10T02:01:33.335Z,24.77
2018-04-10T02:04:02.158Z,23.30
2018-04-10T02:06:30.225Z,24.43
2018-04-10T02:08:58.301Z,24.50
2018-04-10T02:11:26.371Z,25.47
2018-04-10T02:13:54.433Z,25.23
2018-04-10T02:16:22.511Z,24.20
2018-04-10T02:18:50.595Z,26.27
2018-04-10T02:21:18.637Z,24.30
2018-04-10T02:23:46.730Z,26.47
2018-04-10T02:26:14.790Z,24.40
2018-04-10T02:28:42.861Z,24.13
2018-04-10T02:31:10.940Z,24.67
2018-04-10T02:33:39.009Z,24.90
2018-04-10T02:36:07.106Z,24.70
2018-04-10T02:38:35.126Z,25.00
2018-04-10T02:41:03.970Z,25.17
2018-04-10T02:43:32.037Z,24.90
2018-04-10T02:46:00.072Z,24.57
2018-04-10T02:48:28.128Z,25.90
2018-04-10T02:50:56.936Z,25.03
2018-04-10T02:53:25.014Z,23.60
2018-04-10T02:55:53.076Z,23.90
2018-04-10T02:58:21.141Z,23.80
2018-04-10T03:00:49.237Z,23.93
2018-04-10T03:03:17.336Z,23.87
2018-04-10T03:05:45.347Z,23.60
2018-04-10T03:08:14.165Z,24.17
2018-04-10T03:10:42.253Z,23.73
2018-04-10T03:13:10.305Z,26.03
2018-04-10T03:15:38.365Z,23.73
2018-04-10T03:18:06.442Z,24.13
2018-04-10T03:20:34.485Z,25.47
2018-04-10T03:23:02.550Z,24.10
2018-04-10T03:25:30.653Z,23.37
2018-04-10T03:27:58.822Z,23.90
2018-04-10T03:30:26.833Z,23.77
2018-04-10T03:32:54.900Z,24.83
2018-04-10T03:35:22.948Z,24.00
2018-04-10T03:37:50.990Z,22.87
2018-04-10T03:40:19.040Z,24.10
2018-04-10T03:42:47.095Z,24.13
2018-04-10T03:45:15.164Z,22.97
2018-04-10T03:47:43.299Z,23.27
2018-04-10T03:50:11.713Z,25.30
2018-04-10T03:52:39.761Z,22.77
2018-04-10T03:55:07.837Z,24.10
2018-04-10T03:57:35.888Z,27.57
2018-04-10T04:00:03.958Z,24.27
2018-04-10T04:02:32.014Z,24.30
2018-04-10T04:05:00.850Z,24.90
2018-04-10T04:07:28.914Z,24.37
2018-04-10T04:09:56.974Z,23.10
2018-04-10T04:12:25.053Z,23.73
2018-04-10T04:14:53.108Z,23.37
2018-04-10T04:17:33.165Z,23.33
2018-04-10T04:20:13.036Z,25.10
2018-04-10T04:22:41.114Z,24.70
2018-04-10T04:25:09.173Z,24.90
2018-04-10T04:27:37.217Z,25.23
2018-04-10T04:30:05.295Z,24.17
2018-04-10T04:32:33.466Z,24.63
2018-04-10T04:35:01.580Z,24.37
2018-04-10T04:37:29.653Z,24.40
2018-04-10T04:39:57.700Z,23.50
2018-04-10T04:42:25.751Z,24.33
2018-04-10T04:44:53.824Z,25.27
2018-04-10T04:47:21.893Z,23.40
2018-04-10T04:49:49.952Z,24.43
2018-04-10T04:52:18.778Z,26.07
2018-04-10T04:54:46.826Z,25.10
2018-04-10T04:57:14.886Z,24.63
2018-04-10T04:59:42.959Z,27.07
2018-04-10T05:02:11.762Z,26.07
2018-04-10T05:04:39.823Z,24.63
2018-04-10T05:07:07.865Z,28.17
2018-04-10T05:09:35.928Z,24.47
2018-04-10T05:12:04.004Z,25.83
2018-04-10T05:14:32.076Z,33.70
2018-04-10T05:17:00.116Z,23.37
2018-04-10T05:19:28.165Z,24.80
2018-04-10T05:21:56.249Z,26.40
2018-04-10T05:24:24.290Z,24.70
2018-04-10T05:26:52.369Z,30.87
2018-04-10T05:29:20.413Z,23.80
2018-04-10T05:31:49.249Z,24.03
2018-04-10T05:34:17.304Z,24.40
2018-04-10T05:36:46.089Z,24.50
2018-04-10T05:39:14.159Z,25.93
2018-04-10T05:41:42.948Z,24.60
2018-04-10T05:44:11.032Z,25.70
2018-04-10T05:46:39.064Z,24.20
2018-04-10T05:49:07.881Z,24.90
2018-04-10T05:51:35.937Z,23.73
2018-04-10T05:54:03.993Z,25.10
2018-04-10T05:56:32.826Z,23.73
2018-04-10T05:59:00.893Z,23.90
2018-04-10T06:01:28.930Z,22.90
2018-04-10T06:03:56.988Z,24.10
2018-04-10T06:06:25.055Z,23.57
2018-04-10T06:08:53.097Z,24.67
2018-04-10T06:11:21.196Z,23.63
2018-04-10T06:13:49.273Z,24.00
2018-04-10T06:16:17.332Z,24.40
2018-04-10T06:18:45.372Z,23.40
2018-04-10T06:21:13.517Z,26.50
2018-04-10T06:23:41.555Z,23.93
2018-04-10T06:26:09.610Z,23.53
2018-04-10T06:28:37.679Z,25.40
2018-04-10T06:31:05.810Z,24.83
2018-04-10T06:33:33.820Z,25.00
2018-04-10T06:36:01.906Z,24.60
2018-04-10T06:38:29.966Z,25.23
2018-04-10T06:40:58.010Z,24.70
2018-04-10T06:43:26.078Z,25.90
2018-04-10T06:45:54.154Z,25.30
2018-04-10T06:48:22.195Z,26.00
2018-04-10T06:50:51.092Z,26.63
2018-04-10T06:53:19.121Z,24.80
2018-04-10T06:55:47.179Z,26.20
2018-04-10T06:58:15.800Z,25.47
2018-04-10T07:00:44.634Z,24.40
2018-04-10T07:03:12.673Z,26.10
2018-04-10T07:05:40.753Z,24.40
2018-04-10T07:08:09.575Z,26.70
2018-04-10T07:10:37.635Z,25.00
2018-04-10T07:13:05.697Z,26.77
2018-04-10T07:15:33.793Z,26.20
2018-04-10T07:18:01.819Z,25.80
2018-04-10T07:20:29.885Z,25.60
2018-04-10T07:22:58.725Z,26.90
2018-04-10T07:25:26.787Z,26.00
2018-04-10T07:27:54.856Z,26.17
2018-04-10T07:30:22.904Z,26.60
2018-04-10T07:32:51.075Z,26.90
2018-04-10T07:35:19.079Z,25.70
2018-04-10T07:37:47.157Z,37.63
2018-04-10T07:40:15.193Z,25.73
2018-04-10T07:42:43.289Z,26.40
2018-04-10T07:45:11.352Z,29.27
2018-04-10T07:47:39.500Z,27.50
2018-04-10T07:50:07.567Z,25.60
2018-04-10T07:52:36.380Z,26.90
2018-04-10T07:55:04.446Z,26.73
2018-04-10T07:57:33.511Z,27.20
2018-04-10T08:00:02.325Z,25.43
2018-04-10T08:02:30.405Z,25.70
2018-04-10T08:04:58.444Z,27.77
2018-04-10T08:07:27.254Z,26.13
2018-04-10T08:09:55.335Z,27.60
2018-04-10T08:12:23.409Z,27.33
2018-04-10T08:14:51.495Z,27.87
2018-04-10T08:17:19.524Z,26.73
2018-04-10T08:19:47.590Z,26.20
2018-04-10T08:22:16.490Z,26.50
2018-04-10T08:24:44.511Z,26.90
2018-04-10T08:27:12.574Z,25.70
2018-04-10T08:29:41.403Z,26.33
2018-04-10T08:32:10.237Z,27.40
2018-04-10T08:34:38.333Z,28.23
2018-04-10T08:37:06.401Z,27.13
2018-04-10T08:39:34.486Z,31.73
2018-04-10T08:42:02.549Z,27.10
2018-04-10T08:44:30.633Z,25.83
2018-04-10T08:46:58.697Z,26.53
2018-04-10T08:49:26.772Z,28.90
2018-04-10T08:51:54.819Z,27.43
2018-04-10T08:54:22.987Z,28.80
2018-04-10T08:56:51.032Z,28.53
2018-04-10T08:59:19.084Z,29.47
2018-04-10T09:01:48.025Z,26.60
2018-04-10T09:04:16.092Z,27.80
2018-04-10T09:06:44.167Z,28.10
2018-04-10T09:09:12.213Z,26.40
2018-04-10T09:11:40.274Z,33.90
2018-04-10T09:14:08.349Z,29.10
2018-04-10T09:16:37.166Z,26.40
2018-04-10T09:19:05.217Z,29.00
2018-04-10T09:21:33.270Z,28.43
2018-04-10T09:24:02.098Z,28.27
2018-04-10T09:26:30.143Z,28.87
2018-04-10T09:28:58.214Z,29.20
2018-04-10T09:31:26.267Z,29.20
2018-04-10T09:33:55.071Z,29.70
2018-04-10T09:36:23.139Z,29.73
2018-04-10T09:38:51.196Z,27.53
2018-04-10T09:41:20.062Z,27.90
2018-04-10T09:43:48.150Z,27.57
2018-04-10T09:46:16.184Z,28.87
2018-04-10T09:48:44.247Z,28.03
2018-04-10T09:51:12.329Z,27.50
2018-04-10T09:53:40.379Z,29.20
2018-04-10T09:56:08.430Z,31.23
2018-04-10T09:58:36.501Z,28.40
2018-04-10T10:01:04.551Z,31.10
2018-04-10T10:03:33.374Z,28.50
2018-04-10T10:06:01.432Z,29.97
2018-04-10T10:08:29.503Z,30.33
2018-04-10T10:10:57.571Z,30.07
2018-04-10T10:13:26.384Z,30.03
2018-04-10T10:15:54.520Z,28.50
2018-04-10T10:18:23.324Z,28.70
2018-04-10T10:20:51.402Z,30.80
2018-04-10T10:23:20.229Z,29.60
2018-04-10T10:25:48.318Z,29.73
2018-04-10T10:28:16.403Z,27.80
2018-04-10T10:30:44.901Z,29.10
2018-04-10T10:33:13.738Z,29.80
2018-04-10T10:35:41.782Z,27.70
2018-04-10T10:38:09.841Z,29.77
2018-04-10T10:40:37.930Z,30.93
2018-04-10T10:43:05.969Z,27.27
2018-04-10T10:45:34.772Z,26.97
2018-04-10T10:48:02.854Z,27.83
2018-04-10T10:50:30.899Z,27.27
2018-04-10T10:52:59.726Z,27.83
2018-04-10T10:55:27.776Z,27.47
2018-04-10T10:57:55.835Z,28.60
2018-04-10T11:00:24.693Z,28.83
2018-04-10T11:02:52.761Z,31.70
2018-04-10T11:05:20.814Z,26.63
2018-04-10T11:07:48.898Z,27.17
2018-04-10T11:10:16.938Z,27.57
2018-04-10T11:12:45.006Z,27.30
2018-04-10T11:15:13.045Z,32.00
2018-04-10T11:17:41.869Z,32.40
2018-04-10T11:20:09.948Z,29.03
2018-04-10T11:22:38.739Z,25.03
2018-04-10T11:25:06.823Z,24.70
2018-04-10T11:27:34.866Z,26.97
2018-04-10T11:30:02.935Z,27.13
2018-04-10T11:32:31.762Z,27.67
2018-04-10T11:34:59.848Z,27.43
2018-04-10T11:37:27.898Z,26.13
2018-04-10T11:39:55.936Z,27.87
2018-04-10T11:42:24.011Z,25.13
2018-04-10T11:44:52.058Z,27.60
2018-04-10T11:47:20.905Z,26.03
2018-04-10T11:49:48.968Z,26.97
2018-04-10T11:52:17.013Z,27.77
2018-04-10T11:54:45.121Z,25.80
2018-04-10T11:57:13.128Z,27.33
2018-04-10T11:59:41.938Z,27.90
2018-04-10T12:02:10.042Z,25.17
2018-04-10T12:04:38.097Z,26.70
2018-04-10T12:07:06.189Z,27.67
2018-04-10T12:09:34.429Z,28.53
2018-04-10T12:12:02.449Z,28.77
2018-04-10T12:14:30.490Z,28.03
2018-04-10T12:16:58.562Z,26.77
2018-04-10T12:19:26.612Z,25.83
2018-04-10T12:21:54.660Z,26.90
2018-04-10T12:24:23.693Z,25.93
2018-04-10T12:26:52.475Z,25.33
2018-04-10T12:29:20.543Z,28.70
2018-04-10T12:31:48.565Z,28.97
2018-04-10T12:34:16.624Z,25.80
2018-04-10T12:36:44.742Z,27.20
2018-04-10T12:39:12.757Z,24.83
2018-04-10T12:41:40.824Z,24.63
2018-04-10T12:44:08.859Z,25.80
2018-04-10T12:46:36.923Z,18.60
2018-04-10T12:49:05.717Z,26.97
2018-04-10T12:51:34.577Z,25.50
2018-04-10T12:54:02.628Z,26.23
2018-04-10T12:56:30.696Z,25.23
2018-04-10T12:58:58.768Z,24.37
2018-04-10T13:01:27.614Z,23.83
2018-04-10T13:03:55.663Z,25.23
2018-04-10T13:06:24.498Z,25.90
2018-04-10T13:08:52.646Z,24.63
2018-04-10T13:11:20.698Z,24.80
2018-04-10T13:13:49.546Z,27.13
2018-04-10T13:16:17.620Z,28.70
2018-04-10T13:18:45.644Z,26.33
2018-04-10T13:21:14.457Z,27.60
2018-04-10T13:23:42.548Z,25.73
2018-04-10T13:26:10.617Z,26.60
2018-04-10T13:28:39.429Z,27.10
2018-04-10T13:31:07.540Z,27.43
2018-04-10T13:33:35.572Z,29.20
2018-04-10T13:36:03.617Z,28.37
2018-04-10T13:38:31.682Z,27.07
2018-04-10T13:40:59.829Z,26.37
2018-04-10T13:43:27.852Z,27.93
2018-04-10T13:45:55.913Z,28.23
2018-04-10T13:48:24.002Z,20.43
2018-04-10T13:50:52.077Z,26.03
2018-04-10T13:53:20.119Z,27.77
2018-04-10T13:55:48.936Z,26.37
2018-04-10T13:58:17.015Z,26.90
2018-04-10T14:00:45.091Z,25.87
2018-04-10T14:03:13.129Z,26.87
2018-04-10T14:05:41.189Z,26.53
2018-04-10T14:08:09.260Z,27.70
2018-04-10T14:10:37.406Z,28.03
2018-04-10T14:13:06.415Z,26.73
2018-04-10T14:15:34.496Z,26.50
2018-04-10T14:18:02.553Z,27.03
2018-04-10T14:20:30.653Z,27.50
2018-04-10T14:22:58.701Z,29.17
2018-04-10T14:25:26.782Z,31.07
2018-04-10T14:27:54.860Z,30.37
2018-04-10T14:30:22.904Z,28.00
2018-04-10T14:32:50.965Z,28.23
2018-04-10T14:35:19.033Z,28.07
2018-04-10T14:37:47.133Z,26.27
2018-04-10T14:40:15.189Z,27.13
2018-04-10T14:42:43.253Z,27.17
2018-04-10T14:45:11.334Z,24.00
2018-04-10T14:47:39.370Z,26.00
2018-04-10T14:50:07.479Z,24.83
2018-04-10T14:52:35.517Z,25.03
2018-04-10T14:55:03.569Z,23.90
2018-04-10T14:57:31.631Z,22.67
2018-04-10T14:59:59.689Z,25.20
2018-04-10T15:02:27.762Z,26.30
2018-04-10T15:04:55.817Z,27.60
2018-04-10T15:07:23.884Z,26.37
2018-04-10T15:09:51.966Z,23.10
2018-04-10T15:12:20.110Z,23.80
2018-04-10T15:14:48.134Z,22.03
2018-04-10T15:17:16.186Z,21.77
2018-04-10T15:19:44.258Z,23.53
2018-04-10T15:22:12.319Z,24.17
2018-04-10T15:24:40.397Z,24.53
2018-04-10T15:27:08.643Z,24.70
2018-04-10T15:29:36.676Z,23.30
2018-04-10T15:32:04.740Z,23.43
2018-04-10T15:34:32.857Z,19.50
2018-04-10T15:37:00.871Z,22.30
2018-04-10T15:39:28.945Z,19.90
2018-04-10T15:41:58.097Z,16.87
2018-04-10T15:44:26.108Z,21.60
2018-04-10T15:46:54.187Z,17.50
2018-04-10T15:49:22.228Z,16.73
2018-04-10T15:51:50.304Z,21.77
2018-04-10T15:54:18.361Z,18.73
2018-04-10T15:56:46.443Z,18.87
2018-04-10T15:59:14.476Z,17.80
2018-04-10T16:01:43.297Z,17.70
2018-04-10T16:04:11.374Z,16.33
2018-04-10T16:06:39.419Z,19.40
2018-04-10T16:09:07.493Z,17.70
2018-04-10T16:11:35.567Z,18.07
2018-04-10T16:14:03.638Z,17.83
2018-04-10T16:16:31.715Z,15.50
2018-04-10T16:18:59.769Z,18.30
2018-04-10T16:21:28.623Z,16.60
2018-04-10T16:23:56.676Z,16.13
2018-04-10T16:26:24.723Z,15.97
2018-04-10T16:28:52.794Z,14.97
2018-04-10T16:31:20.968Z,15.30
2018-04-10T16:33:48.981Z,16.60
2018-04-10T16:36:17.055Z,13.97
2018-04-10T16:38:45.108Z,14.30
2018-04-10T16:41:13.242Z,13.10
2018-04-10T16:43:41.293Z,17.70
2018-04-10T16:46:10.130Z,16.57
2018-04-10T16:48:38.184Z,17.77
2018-04-10T16:51:06.241Z,19.40
2018-04-10T16:53:34.298Z,19.00
2018-04-10T16:56:03.149Z,12.93
2018-04-10T16:58:31.222Z,15.30
2018-04-10T17:00:59.302Z,19.07
2018-04-10T17:03:27.361Z,17.70
2018-04-10T17:05:55.433Z,14.87
2018-04-10T17:08:23.485Z,14.57
2018-04-10T17:10:51.533Z,15.13
2018-04-10T17:13:19.625Z,15.67
2018-04-10T17:15:47.717Z,20.10
2018-04-10T17:18:15.757Z,20.70
2018-04-10T17:20:43.836Z,24.13
2018-04-10T17:23:11.883Z,21.97
2018-04-10T17:25:40.712Z,22.83
2018-04-10T17:28:08.764Z,25.70
2018-04-10T17:30:36.821Z,24.63
2018-04-10T17:33:05.680Z,24.13
2018-04-10T17:35:33.738Z,23.63
2018-04-10T17:38:01.794Z,22.40
2018-04-10T17:40:29.918Z,24.00
2018-04-10T17:42:58.744Z,22.90
2018-04-10T17:45:26.826Z,23.97
2018-04-10T17:47:54.931Z,22.20
2018-04-10T17:50:23.033Z,22.10
2018-04-10T17:52:51.060Z,24.43
2018-04-10T17:55:20.609Z,24.67
2018-04-10T17:57:48.702Z,24.00
2018-04-10T18:00:17.621Z,26.43
2018-04-10T18:02:46.445Z,28.40
2018-04-10T18:05:15.293Z,26.90
2018-04-10T18:07:43.350Z,26.23
2018-04-10T18:10:11.405Z,24.80
2018-04-10T18:13:08.941Z,28.57
2018-04-10T18:15:37.829Z,28.30
2018-04-10T18:18:06.630Z,28.43
2018-04-10T18:20:36.766Z,26.73
2018-04-10T18:23:08.511Z,28.37
2018-04-10T18:25:41.124Z,28.47
2018-04-10T18:28:11.993Z,29.17
2018-04-10T18:30:42.424Z,29.57
2018-04-10T18:33:11.261Z,29.50
2018-04-10T18:38:16.627Z,26.63
2018-04-10T18:40:45.572Z,27.20
2018-04-10T18:43:15.375Z,27.47
2018-04-10T18:45:46.246Z,27.73
2018-04-10T18:48:14.321Z,27.33
2018-04-10T18:50:42.448Z,27.60
2018-04-10T18:53:10.541Z,27.50
2018-04-10T18:55:39.355Z,26.27
2018-04-10T18:58:07.393Z,28.30
2018-04-10T19:00:35.463Z,27.23
2018-04-10T19:03:03.535Z,26.90
2018-04-10T19:05:31.624Z,28.10
2018-04-10T19:08:00.128Z,26.90
2018-04-10T19:10:28.183Z,29.10
2018-04-10T19:12:57.586Z,27.80
2018-04-10T19:15:25.659Z,26.17
2018-04-10T19:17:53.736Z,26.50
2018-04-10T19:20:21.804Z,21.30
2018-04-10T19:22:49.870Z,26.13
2018-04-10T19:25:18.716Z,25.33
2018-04-10T19:27:46.840Z,25.90
2018-04-10T19:30:14.873Z,30.27
2018-04-10T19:32:42.933Z,30.43
2018-04-10T19:35:11.061Z,28.20
2018-04-10T19:37:39.084Z,31.23
2018-04-10T19:40:07.139Z,31.07
2018-04-10T19:42:35.209Z,29.10
2018-04-10T19:45:03.258Z,28.97
2018-04-10T19:47:31.322Z,26.77
2018-04-10T19:49:59.371Z,30.63
2018-04-10T19:52:28.222Z,27.30
2018-04-10T19:54:56.273Z,26.33
2018-04-10T19:57:24.313Z,25.77
2018-04-10T19:59:52.383Z,24.47
2018-04-10T20:02:20.420Z,26.93
2018-04-10T20:04:48.554Z,25.80
2018-04-10T20:07:16.529Z,25.93
2018-04-10T20:09:44.598Z,26.03
2018-04-10T20:12:12.651Z,26.40
2018-04-10T20:14:40.722Z,27.90
2018-04-10T20:17:08.773Z,26.37
2018-04-10T20:19:37.626Z,26.97
2018-04-10T20:22:05.696Z,24.63
2018-04-10T20:24:33.741Z,24.90
2018-04-10T20:27:01.839Z,25.30
2018-04-10T20:29:29.908Z,23.57
2018-04-10T20:31:57.946Z,24.93
2018-04-10T20:34:26.016Z,26.43
2018-04-10T20:36:54.062Z,26.20
2018-04-10T20:39:22.265Z,26.30
2018-04-10T20:41:50.413Z,25.03
2018-04-10T20:44:19.224Z,24.17
2018-04-10T20:46:47.293Z,25.80
2018-04-10T20:49:15.375Z,25.00
2018-04-10T20:51:43.441Z,24.97
2018-04-10T20:54:11.485Z,25.67
2018-04-10T20:56:39.533Z,27.87
2018-04-10T20:59:07.597Z,27.40
2018-04-10T21:01:35.718Z,27.20
2018-04-10T21:04:03.813Z,26.83
2018-04-10T21:06:32.754Z,25.53
2018-04-10T21:09:01.554Z,25.93
2018-04-10T21:11:29.619Z,23.70
2018-04-10T21:13:58.421Z,24.50
2018-04-10T21:16:26.495Z,24.10
2018-04-10T21:18:54.560Z,22.40
2018-04-10T21:21:22.630Z,22.97
2018-04-10T21:23:50.700Z,24.03
2018-04-10T21:26:18.782Z,25.17
2018-04-10T21:28:46.862Z,22.00
2018-04-10T21:31:14.941Z,23.30
2018-04-10T21:33:42.997Z,21.43
2018-04-10T21:36:11.072Z,23.47
2018-04-10T21:38:39.129Z,22.87
2018-04-10T21:41:07.176Z,20.50
2018-04-10T21:43:35.265Z,23.00
2018-04-10T21:46:04.104Z,23.47
2018-04-10T21:48:32.194Z,22.57
2018-04-10T21:51:00.331Z,23.93
2018-04-10T21:53:28.370Z,22.87
2018-04-10T21:55:57.188Z,21.50
2018-04-10T21:58:25.234Z,19.17
2018-04-10T22:00:54.053Z,22.03
2018-04-10T22:03:22.100Z,22.93
2018-04-10T22:05:50.155Z,23.30
2018-04-10T22:08:18.993Z,23.43
2018-04-10T22:10:47.061Z,22.43
2018-04-10T22:13:15.127Z,24.20
2018-04-10T22:15:43.238Z,23.67
2018-04-10T22:18:11.321Z,22.83
2018-04-10T22:20:39.361Z,22.27
2018-04-10T22:23:07.551Z,23.23
2018-04-10T22:25:35.594Z,22.10
2018-04-10T22:28:03.658Z,20.40
2018-04-10T22:30:31.743Z,20.70
2018-04-10T22:32:59.749Z,20.97
2018-04-10T22:35:27.834Z,22.03
2018-04-10T22:37:55.866Z,20.17
2018-04-10T22:40:24.714Z,22.60
2018-04-10T22:42:52.814Z,20.40
2018-04-10T22:45:20.862Z,20.17
2018-04-10T22:47:48.920Z,19.40
2018-04-10T22:50:16.976Z,22.73
2018-04-10T22:52:45.069Z,23.50
2018-04-10T22:55:13.127Z,21.20
2018-04-10T22:57:41.175Z,22.30
2018-04-10T23:00:10.018Z,22.97
2018-04-10T23:02:38.072Z,17.77
2018-04-10T23:05:06.167Z,21.83
2018-04-10T23:07:34.231Z,20.13
2018-04-10T23:10:02.305Z,22.20
2018-04-10T23:12:31.118Z,22.47
2018-04-10T23:14:59.208Z,21.70
2018-04-10T23:17:27.247Z,21.60
2018-04-10T23:19:55.363Z,20.37
2018-04-10T23:22:23.407Z,18.77
2018-04-10T23:24:51.452Z,21.00
2018-04-10T23:27:19.522Z,20.80
2018-04-10T23:29:47.569Z,18.77
2018-04-10T23:32:16.394Z,19.00
2018-04-10T23:34:44.445Z,19.67
2018-04-10T23:37:12.529Z,20.57
2018-04-10T23:39:40.573Z,18.60
2018-04-10T23:42:09.419Z,19.70
2018-04-10T23:44:37.512Z,19.00
2018-04-10T23:47:05.561Z,20.50
2018-04-10T23:49:33.606Z,20.50
2018-04-10T23:52:01.661Z,21.33
2018-04-10T23:54:29.758Z,19.33
2018-04-10T23:56:57.805Z,20.07
2018-04-10T23:59:25.879Z,18.57
